Time;durP1;ratioP1;P1;durP2;ratioP2;P2;SDS_P1;SDS_P2;PMS_P1;PMS_P2;Temp;Humidity;BMP_temperature;BMP_pressure;BME280_temperature;BME280_humidity;BME280_pressure;Samples;Min_cycle;Max_cycle;Signal;HPM_P1;HPM_P2
2022/06/14 00:00:59;;;;;;;1.55;0.30;;;;;;;27.13;48.01;100641.91;4992104;28;20085;-72
2022/06/14 00:03:25;;;;;;;0.90;0.30;;;;;;;27.12;47.93;100641.09;4992200;28;20030;-72
2022/06/14 00:05:51;;;;;;;0.50;0.30;;;;;;;27.12;48.21;100641.09;4991942;28;20466;-72
2022/06/14 00:08:18;;;;;;;0.50;0.40;;;;;;;27.12;47.95;100635.75;4991934;28;20023;-72
2022/06/14 00:10:45;;;;;;;0.98;0.30;;;;;;;27.12;48.03;100629.59;4992129;28;20134;-72
2022/06/14 00:13:12;;;;;;;0.63;0.30;;;;;;;27.10;47.77;100629.84;4991904;28;20090;-72
2022/06/14 00:15:37;;;;;;;0.52;0.20;;;;;;;27.10;47.77;100616.47;4991928;28;20030;-72
2022/06/14 00:18:03;;;;;;;0.80;0.30;;;;;;;27.09;47.56;100613.00;4991687;28;20054;-72
2022/06/14 00:20:29;;;;;;;0.55;0.30;;;;;;;27.08;47.46;100611.38;4992091;28;20437;-72
2022/06/14 00:22:54;;;;;;;0.85;0.30;;;;;;;27.08;47.30;100621.28;4992229;28;20033;-72
2022/06/14 00:25:41;;;;;;;1.17;0.22;;;;;;;27.04;47.14;100623.63;4991824;28;20096;-72
2022/06/14 00:28:10;;;;;;;0.98;0.35;;;;;;;27.05;47.35;100616.41;4991814;28;20410;-72
2022/06/14 00:30:35;;;;;;;0.90;0.30;;;;;;;27.05;47.10;100627.91;4991954;28;20033;-72
2022/06/14 00:33:01;;;;;;;0.75;0.40;;;;;;;27.05;47.23;100630.59;4991602;28;20038;-72
2022/06/14 00:35:27;;;;;;;0.75;0.30;;;;;;;27.05;47.12;100632.47;4991690;28;20039;-72
2022/06/14 00:37:53;;;;;;;1.05;0.40;;;;;;;27.04;47.18;100636.19;4991368;28;20026;-72
2022/06/14 00:40:23;;;;;;;1.20;0.30;;;;;;;27.05;46.86;100645.84;4991325;28;20037;-72
2022/06/14 00:42:49;;;;;;;0.60;0.30;;;;;;;27.02;47.08;100641.78;4990800;28;20053;-72
2022/06/14 00:45:17;;;;;;;1.25;0.40;;;;;;;27.03;46.96;100645.28;4991390;28;20027;-72
2022/06/14 00:47:47;;;;;;;0.82;0.30;;;;;;;27.03;47.07;100642.59;4991369;28;20042;-72
2022/06/14 00:50:24;;;;;;;2.20;0.40;;;;;;;27.02;47.07;100643.66;4991405;28;20036;-72
2022/06/14 00:52:53;;;;;;;0.60;0.40;;;;;;;27.01;46.86;100642.03;4991031;28;20042;-72
2022/06/14 00:55:31;;;;;;;0.43;0.30;;;;;;;27.01;46.93;100642.03;4991399;28;20037;-72
2022/06/14 00:58:06;;;;;;;0.70;0.35;;;;;;;27.01;46.93;100631.34;4991475;28;20129;-72
2022/06/14 01:00:33;;;;;;;;;;;;;;;26.93;46.86;100627.22;4991514;28;20022;-73
2022/06/14 01:03:05;;;;;;;0.80;0.30;;;;;;;26.95;46.69;100617.06;4991156;28;19918;-72
2022/06/14 01:06:05;;;;;;;0.50;0.20;;;;;;;26.97;46.86;100624.88;4991454;28;20026;-72
2022/06/14 01:08:33;;;;;;;0.70;0.30;;;;;;;26.98;46.45;100627.28;4991051;28;20042;-72
2022/06/14 01:10:59;;;;;;;0.32;0.20;;;;;;;26.99;46.48;100628.91;4990937;28;20559;-72
2022/06/14 01:13:25;;;;;;;0.63;0.20;;;;;;;27.00;46.31;100635.06;4990870;28;20146;-72
2022/06/14 01:15:54;;;;;;;0.82;0.20;;;;;;;27.00;46.11;100630.53;4990698;28;20494;-72
2022/06/14 01:18:20;;;;;;;0.43;0.20;;;;;;;26.99;46.21;100634.25;4990413;28;20565;-72
2022/06/14 01:20:45;;;;;;;0.55;0.30;;;;;;;26.98;45.54;100632.66;4991159;28;20117;-72
2022/06/14 01:23:15;;;;;;;1.42;0.25;;;;;;;26.97;45.47;100639.03;4990664;28;20033;-72
2022/06/14 01:25:45;;;;;;;1.15;0.30;;;;;;;26.96;45.05;100634.75;4991103;28;20393;-72
2022/06/14 01:28:11;;;;;;;0.50;0.20;;;;;;;26.95;44.67;100634.97;4990660;28;20034;-72
2022/06/14 01:30:45;;;;;;;1.02;0.30;;;;;;;26.94;44.40;100641.41;4990895;28;20525;-72
2022/06/14 01:33:19;;;;;;;0.68;0.22;;;;;;;26.93;44.31;100639.78;4990869;28;20034;-72
2022/06/14 01:35:50;;;;;;;0.70;0.20;;;;;;;26.94;43.85;100649.44;4990871;28;20038;-72
2022/06/14 01:38:17;;;;;;;3.40;0.25;;;;;;;26.95;43.75;100651.00;4990660;28;20048;-72
2022/06/14 01:40:50;;;;;;;0.47;0.28;;;;;;;26.95;43.70;100654.50;4990257;28;20025;-72
2022/06/14 01:43:51;;;;;;;4.60;0.20;;;;;;;26.94;43.67;100652.09;4990274;28;20038;-72
2022/06/14 01:46:24;;;;;;;1.23;0.22;;;;;;;26.95;43.33;100664.38;4990273;28;20037;-72
2022/06/14 01:51:50;;;;;;;1.20;0.20;;;;;;;26.95;42.89;100664.38;4990188;28;20033;-72
2022/06/14 01:51:53;;;;;;;0.93;0.20;;;;;;;26.95;43.24;100664.38;4990478;28;20042;-72
2022/06/14 01:54:36;;;;;;;0.98;0.20;;;;;;;26.95;43.05;100669.72;4989587;28;20038;-72
2022/06/14 01:57:24;;;;;;;0.45;0.20;;;;;;;26.94;42.89;100665.47;4989919;28;20027;-72
2022/06/14 02:00:10;;;;;;;1.40;0.20;;;;;;;26.94;42.79;100668.91;4990006;28;20069;-72
2022/06/14 02:02:41;;;;;;;0.90;0.20;;;;;;;26.95;42.88;100670.53;4989995;28;20058;-72
2022/06/14 02:05:20;;;;;;;0.45;0.20;;;;;;;26.96;42.69;100672.19;4990071;28;20100;-71
2022/06/14 02:08:08;;;;;;;0.50;0.20;;;;;;;26.95;42.78;100659.03;4990211;28;20023;-72
2022/06/14 02:10:47;;;;;;;0.70;0.30;;;;;;;26.95;42.65;100664.38;4989858;28;20030;-71
2022/06/14 02:13:17;;;;;;;0.60;0.20;;;;;;;26.96;42.34;100655.34;4989868;28;20037;-71
2022/06/14 02:15:55;;;;;;;1.00;0.20;;;;;;;26.94;41.67;100665.47;4989588;28;20026;-72
2022/06/14 02:18:25;;;;;;;0.85;0.20;;;;;;;26.88;41.76;100685.16;4989204;28;20054;-72
2022/06/14 02:20:58;;;;;;;1.65;0.20;;;;;;;26.86;41.73;100680.06;4989714;28;20037;-72
2022/06/14 02:23:25;;;;;;;1.45;0.20;;;;;;;26.86;41.82;100676.59;4989474;28;20402;-72
2022/06/14 02:25:58;;;;;;;0.73;0.20;;;;;;;26.87;41.61;100675.53;4989591;28;20038;-72
2022/06/14 02:28:36;;;;;;;1.30;0.30;;;;;;;26.87;41.69;100679.00;4989667;28;20033;-72
2022/06/14 02:31:08;;;;;;;0.95;0.30;;;;;;;26.88;41.85;100669.13;4989326;28;20033;-72
2022/06/14 02:33:39;;;;;;;0.52;0.20;;;;;;;26.89;41.79;100665.41;4989602;28;20034;-72
2022/06/14 02:36:15;;;;;;;0.65;0.30;;;;;;;26.89;42.12;100673.41;4989510;28;20035;-72
2022/06/14 02:39:01;;;;;;;2.05;0.20;;;;;;;26.88;42.18;100671.81;4989344;28;20045;-72
2022/06/14 02:41:50;;;;;;;1.45;0.30;;;;;;;26.87;41.82;100678.19;5298913;22;20074;-72
2022/06/14 02:44:18;;;;;;;1.27;0.30;;;;;;;26.88;42.12;100682.50;4992773;28;20061;-72
2022/06/14 02:46:55;;;;;;;0.65;0.20;;;;;;;26.89;42.04;100686.78;5009207;28;20848;-72
2022/06/14 02:49:28;;;;;;;0.70;0.30;;;;;;;26.89;42.17;100698.28;5009416;28;20117;-72
2022/06/14 02:52:01;;;;;;;0.70;0.20;;;;;;;26.90;42.05;100704.44;5008746;28;20026;-72
2022/06/14 02:54:33;;;;;;;0.60;0.20;;;;;;;26.91;42.11;100724.78;5008817;28;20069;-72
2022/06/14 02:57:06;;;;;;;1.80;0.20;;;;;;;26.89;42.12;100727.69;5008713;28;20026;-72
2022/06/14 02:59:31;;;;;;;0.85;0.20;;;;;;;26.90;41.98;100728.50;5008859;28;20025;-72
2022/06/14 03:02:06;;;;;;;1.15;0.28;;;;;;;26.88;41.85;100728.75;5012001;28;20084;-72
2022/06/14 03:04:36;;;;;;;4.13;0.20;;;;;;;26.88;42.10;100727.94;5013292;28;20030;-72
2022/06/14 03:07:11;;;;;;;0.43;0.20;;;;;;;26.86;41.78;100728.19;5011858;28;20026;-72
2022/06/14 03:09:39;;;;;;;0.95;0.30;;;;;;;26.87;42.11;100742.34;5011534;28;20041;-72
2022/06/14 03:12:13;;;;;;;2.95;0.20;;;;;;;26.85;41.72;100745.28;5010799;28;20113;-72
2022/06/14 03:15:02;;;;;;;0.50;0.20;;;;;;;26.81;41.99;100744.16;5013493;28;20045;-72
2022/06/14 03:17:44;;;;;;;1.33;0.20;;;;;;;26.82;42.13;100744.94;5015635;28;20119;-72
2022/06/14 03:20:12;;;;;;;1.55;0.20;;;;;;;26.81;42.18;100738.78;5015642;28;20026;-72
2022/06/14 03:22:48;;;;;;;1.23;0.30;;;;;;;26.81;42.08;100732.66;5016241;28;20018;-73
2022/06/14 03:25:48;;;;;;;2.78;0.40;;;;;;;26.78;42.10;100739.28;5016232;28;20092;-72
2022/06/14 03:28:22;;;;;;;1.73;0.20;;;;;;;26.77;42.39;100738.47;5001894;28;20140;-73
2022/06/14 03:31:03;;;;;;;0.65;0.20;;;;;;;26.77;42.74;100738.47;5013200;28;20485;-72
2022/06/14 03:33:49;;;;;;;1.20;0.30;;;;;;;26.75;42.59;100737.91;5006883;28;20387;-72
2022/06/14 03:36:15;;;;;;;0.40;0.20;;;;;;;26.76;42.78;100736.84;5006337;28;20081;-72
2022/06/14 03:39:03;;;;;;;0.85;0.30;;;;;;;26.74;42.59;100744.31;5001835;28;20073;-74
2022/06/14 03:41:33;;;;;;;1.27;0.30;;;;;;;26.75;42.97;100740.59;5008434;28;20065;-73
2022/06/14 03:44:00;;;;;;;2.92;0.30;;;;;;;26.78;43.27;100747.31;5007340;28;20034;-73
2022/06/14 03:46:51;;;;;;;2.97;0.50;;;;;;;26.80;43.76;100741.72;5007532;28;20164;-72
2022/06/14 03:49:25;;;;;;;5.60;0.30;;;;;;;26.78;43.78;100745.44;4993865;28;20042;-72
2022/06/14 03:51:53;;;;;;;1.50;0.25;;;;;;;26.78;43.69;100748.13;5004612;28;20053;-71
2022/06/14 03:54:44;;;;;;;1.55;0.20;;;;;;;26.77;43.72;100754.50;5006482;28;20045;-72
2022/06/14 03:57:18;;;;;;;4.25;0.20;;;;;;;26.77;43.68;100765.19;5007502;28;20460;-73
2022/06/14 03:59:44;;;;;;;2.78;0.30;;;;;;;26.78;43.84;100771.34;5006883;28;20046;-73
2022/06/14 04:02:22;;;;;;;2.42;0.30;;;;;;;26.78;43.87;100776.69;5008395;28;20048;-74
2022/06/14 04:05:06;;;;;;;1.83;0.40;;;;;;;26.77;43.57;100777.75;5008384;28;20041;-73
2022/06/14 04:07:48;;;;;;;1.77;0.30;;;;;;;26.74;43.45;100773.72;5008323;28;20079;-73
2022/06/14 04:10:34;;;;;;;6.50;0.30;;;;;;;26.66;42.70;100775.97;5008476;28;20042;-73
2022/06/14 04:13:18;;;;;;;4.13;0.30;;;;;;;26.62;42.88;100772.97;5007875;28;20026;-73
2022/06/14 04:16:03;;;;;;;1.67;0.40;;;;;;;26.65;43.21;100791.19;5008390;28;20363;-73
2022/06/14 04:18:39;;;;;;;;;;;;;;;26.61;43.37;100784.72;5010836;28;20038;-74
2022/06/14 04:21:17;;;;;;;5.75;0.45;;;;;;;26.65;43.50;100787.72;5011569;28;19945;-73
2022/06/14 04:24:23;;;;;;;1.98;0.20;;;;;;;26.68;43.23;100792.56;5011280;28;20037;-73
2022/06/14 04:26:57;;;;;;;1.30;0.20;;;;;;;26.70;43.18;100793.94;4949992;29;20074;-73
2022/06/14 04:29:34;;;;;;;1.45;0.40;;;;;;;26.71;43.25;100792.91;4950188;29;20043;-72
2022/06/14 04:32:07;;;;;;;3.30;0.20;;;;;;;26.72;42.94;100805.22;4949972;29;20179;-73
2022/06/14 04:34:41;;;;;;;3.60;0.40;;;;;;;26.70;42.74;100807.31;4950199;29;20043;-73
2022/06/14 04:37:33;;;;;;;1.13;0.22;;;;;;;26.69;42.78;100804.88;4950094;29;20497;-73
2022/06/14 04:40:06;;;;;;;1.73;0.52;;;;;;;26.71;42.86;100813.47;4950113;29;20200;-73
2022/06/14 04:42:39;;;;;;;1.63;0.20;;;;;;;26.63;41.51;100809.34;4949594;29;20083;-73
2022/06/14 04:45:07;;;;;;;1.50;0.20;;;;;;;26.11;40.97;100809.47;4949873;29;20107;-73
2022/06/14 04:48:24;;;;;;;2.15;0.30;;;;;;;25.78;39.98;100809.34;4949884;29;20055;-73
2022/06/14 04:51:24;;;;;;;3.10;0.28;;;;;;;25.85;40.60;100815.38;4911662;29;20055;-73
2022/06/14 04:54:11;;;;;;;2.75;0.30;;;;;;;26.05;40.68;100809.59;4911672;29;20055;-73
2022/06/14 04:56:51;;;;;;;2.20;0.30;;;;;;;26.21;40.54;100816.84;4898223;29;20491;-73
2022/06/14 04:59:25;;;;;;;1.30;0.20;;;;;;;26.31;40.63;100811.72;4911283;29;20523;-73
2022/06/14 05:01:56;;;;;;;0.90;0.40;;;;;;;26.38;40.56;100814.25;4966515;28;20066;-73
2022/06/14 05:04:26;;;;;;;1.15;0.40;;;;;;;26.42;40.74;100812.72;4969013;28;20066;-73
2022/06/14 05:07:24;;;;;;;1.10;0.40;;;;;;;26.44;40.65;100818.66;4969016;28;20050;-74
2022/06/14 05:09:59;;;;;;;1.15;0.20;;;;;;;26.47;40.93;100812.78;4949379;29;20900;-73
2022/06/14 05:12:32;;;;;;;1.50;0.20;;;;;;;26.48;40.88;100809.06;4949295;28;20067;-73
2022/06/14 05:15:15;;;;;;;1.90;0.40;;;;;;;26.47;40.65;100812.78;4949785;29;20066;-73
2022/06/14 05:17:48;;;;;;;2.38;0.28;;;;;;;26.46;40.48;100813.06;4949425;29;20399;-73
2022/06/14 05:20:19;;;;;;;0.65;0.20;;;;;;;26.48;40.49;100813.59;4949441;29;20046;-74
2022/06/14 05:22:47;;;;;;;0.85;0.20;;;;;;;26.46;40.36;100821.88;4949654;29;20043;-73
2022/06/14 05:25:14;;;;;;;0.65;0.17;;;;;;;26.44;40.16;100821.31;4951627;28;20031;-73
2022/06/14 05:27:52;;;;;;;0.88;0.20;;;;;;;26.41;39.86;100819.94;4968761;28;20573;-73
2022/06/14 05:30:39;;;;;;;1.10;0.30;;;;;;;26.41;39.75;100822.59;4968571;28;20119;-73
2022/06/14 05:33:09;;;;;;;2.05;0.20;;;;;;;26.39;39.78;100821.22;4968611;28;20384;-73
2022/06/14 05:35:39;;;;;;;1.95;0.32;;;;;;;26.41;39.36;100825.28;4968473;28;20499;-73
2022/06/14 05:38:17;;;;;;;2.25;0.13;;;;;;;26.40;39.15;100823.66;4968288;28;20062;-74
2022/06/14 05:40:45;;;;;;;1.58;0.20;;;;;;;26.39;38.83;100826.56;4968175;28;20046;-74
2022/06/14 05:43:15;;;;;;;0.57;0.22;;;;;;;26.36;38.69;100832.38;4962216;28;20408;-73
2022/06/14 05:45:56;;;;;;;1.67;0.30;;;;;;;26.34;38.33;100837.97;4979767;28;20045;-74
2022/06/14 05:48:30;;;;;;;2.58;0.20;;;;;;;26.34;38.22;100832.63;5010110;28;20509;-73
2022/06/14 05:50:58;;;;;;;2.03;0.20;;;;;;;26.36;37.78;100835.06;5010026;28;20029;-73
2022/06/14 05:53:34;;;;;;;0.80;0.30;;;;;;;26.34;37.45;100834.47;5009624;28;20345;-73
2022/06/14 05:56:15;;;;;;;0.80;0.20;;;;;;;26.35;37.01;100830.75;5009716;28;20025;-73
2022/06/14 05:58:49;;;;;;;2.40;0.30;;;;;;;26.39;37.17;100832.72;5009276;28;20049;-72
2022/06/14 06:01:24;;;;;;;2.38;0.30;;;;;;;26.50;37.93;100833.69;5009952;28;20031;-72
2022/06/14 06:03:59;;;;;;;5.50;0.52;;;;;;;26.58;37.50;100840.50;5009532;28;20455;-72
2022/06/14 06:06:31;;;;;;;;;;;;;;;26.53;37.51;100835.88;5010380;28;20037;-73
2022/06/14 06:09:17;;;;;;;2.53;0.25;;;;;;;26.55;38.00;100849.81;5009894;28;20365;-73
2022/06/14 06:12:03;;;;;;;1.70;0.17;;;;;;;26.54;38.09;100848.19;5009666;28;20077;-73
2022/06/14 06:14:30;;;;;;;0.50;0.22;;;;;;;26.56;38.38;100854.09;5009631;28;20041;-72
2022/06/14 06:17:15;;;;;;;0.43;0.10;;;;;;;26.56;38.34;100853.28;5009516;28;20041;-73
2022/06/14 06:20:03;;;;;;;2.03;0.20;;;;;;;26.56;38.63;100846.09;5009400;28;20044;-72
2022/06/14 06:23:07;;;;;;;1.67;0.38;;;;;;;26.54;38.59;100848.19;5009601;28;20041;-72
2022/06/14 06:25:36;;;;;;;1.92;0.52;;;;;;;26.55;37.81;100847.13;4993213;28;20124;-73
2022/06/14 06:28:12;;;;;;;3.65;0.30;;;;;;;26.56;38.12;100842.59;5009726;28;20026;-72
2022/06/14 06:30:39;;;;;;;;;;;;;;;26.49;37.79;100847.28;5009904;28;20049;-72
2022/06/14 06:33:06;;;;;;;2.30;0.30;;;;;;;26.50;38.01;100844.38;5009556;28;19995;-72
2022/06/14 06:36:01;;;;;;;1.02;0.20;;;;;;;26.51;37.56;100862.03;5008991;28;20041;-72
2022/06/14 06:38:58;;;;;;;1.50;0.20;;;;;;;26.51;37.35;100856.69;5008573;28;20080;-73
2022/06/14 06:44:16;;;;;;;1.55;0.20;;;;;;;26.53;37.59;100854.56;5009702;28;20045;-73
2022/06/14 06:46:59;;;;;;;0.57;0.20;;;;;;;26.54;37.43;100856.19;5009283;28;20083;-73
2022/06/14 06:49:34;;;;;;;1.00;0.50;;;;;;;26.55;37.54;100857.81;5009063;28;20084;-73
2022/06/14 06:52:01;;;;;;;;;;;;;;;26.46;37.47;100855.81;5009697;28;20061;-72
2022/06/14 06:54:40;;;;;;;0.90;0.20;;;;;;;26.48;37.60;100867.84;5009353;28;19928;-73
2022/06/14 06:57:07;;;;;;;1.92;0.30;;;;;;;26.52;37.72;100860.97;5008899;28;20104;-73
2022/06/14 06:59:39;;;;;;;1.13;0.20;;;;;;;26.54;37.51;100861.53;5009147;28;20056;-73
2022/06/14 07:02:16;;;;;;;0.75;0.20;;;;;;;26.54;37.57;100866.88;5008712;28;20493;-73
2022/06/14 07:07:46;;;;;;;0.40;0.20;;;;;;;26.54;37.48;100882.91;5009022;28;20160;-73
2022/06/14 07:10:28;;;;;;;0.83;0.20;;;;;;;26.55;37.33;100859.69;5008890;28;20092;-74
2022/06/14 07:12:56;;;;;;;0.55;0.20;;;;;;;26.57;37.26;100862.94;5009169;28;20034;-73
2022/06/14 07:15:33;;;;;;;0.95;0.20;;;;;;;26.55;36.99;100852.47;5009074;28;20101;-74
2022/06/14 07:18:15;;;;;;;1.30;0.25;;;;;;;26.55;36.56;100862.34;5008879;28;20496;-74
2022/06/14 07:20:50;;;;;;;0.82;0.13;;;;;;;26.56;36.74;100872.00;5009063;28;20022;-74
2022/06/14 07:23:53;;;;;;;1.03;0.20;;;;;;;26.52;36.59;100877.00;5009108;28;20262;-74
2022/06/14 07:26:28;;;;;;;0.85;0.20;;;;;;;26.53;36.61;100873.28;5008977;28;20394;-74
2022/06/14 07:29:11;;;;;;;0.85;0.20;;;;;;;26.54;36.51;100876.75;5008609;28;20030;-73
2022/06/14 07:31:58;;;;;;;1.00;0.20;;;;;;;26.51;36.31;100870.03;5008844;28;20080;-73
2022/06/14 07:34:25;;;;;;;1.05;0.20;;;;;;;26.52;36.18;100869.00;5008381;28;20026;-73
2022/06/14 07:37:17;;;;;;;0.30;0.20;;;;;;;26.48;35.77;100875.84;5008460;28;20029;-73
2022/06/14 07:39:57;;;;;;;1.70;0.22;;;;;;;26.47;36.04;100868.13;5002563;28;20113;-72
2022/06/14 07:42:54;;;;;;;1.33;0.32;;;;;;;26.47;36.18;100868.13;5001770;28;20061;-72
2022/06/14 07:45:26;;;;;;;2.13;0.30;;;;;;;26.50;35.99;100875.63;4988424;28;20548;-73
2022/06/14 07:48:14;;;;;;;1.25;0.28;;;;;;;26.51;36.02;100878.06;4988518;28;20042;-73
2022/06/14 07:51:00;;;;;;;1.88;0.20;;;;;;;26.47;36.06;100871.56;4988657;28;20073;-73
2022/06/14 07:53:44;;;;;;;1.02;0.30;;;;;;;26.50;36.03;100876.44;4990909;28;20491;-73
2022/06/14 07:56:15;;;;;;;1.77;0.20;;;;;;;26.51;36.21;100877.25;4992651;28;20089;-73
2022/06/14 07:58:49;;;;;;;0.60;0.20;;;;;;;26.51;36.10;100866.56;4992468;28;20482;-73
2022/06/14 08:01:58;;;;;;;0.77;0.28;;;;;;;26.49;36.01;100872.13;4992545;28;20546;-73
2022/06/14 08:04:49;;;;;;;1.35;0.30;;;;;;;26.49;35.97;100871.31;4951011;29;20042;-73
2022/06/14 08:07:17;;;;;;;0.90;0.20;;;;;;;26.50;35.85;100871.09;4950797;29;20448;-73
2022/06/14 08:09:48;;;;;;;0.55;0.20;;;;;;;26.52;35.93;100878.88;4950989;29;20105;-73
2022/06/14 08:12:20;;;;;;;1.48;0.28;;;;;;;26.53;36.01;100875.94;4950977;29;20047;-73
2022/06/14 08:14:48;;;;;;;2.10;0.30;;;;;;;26.53;35.88;100875.94;4950778;29;20067;-73
2022/06/14 08:17:41;;;;;;;1.15;0.20;;;;;;;26.51;35.81;100864.69;4950577;29;20042;-73
2022/06/14 08:20:09;;;;;;;1.10;0.20;;;;;;;26.52;35.99;100871.66;4950732;29;20106;-73
2022/06/14 08:22:41;;;;;;;2.17;0.20;;;;;;;26.53;35.90;100870.59;4950573;29;20164;-73
2022/06/14 08:25:13;;;;;;;0.60;0.30;;;;;;;26.54;35.96;100876.75;4950435;29;20051;-73
2022/06/14 08:27:50;;;;;;;0.70;0.20;;;;;;;26.52;35.97;100876.19;4950434;29;20074;-73
2022/06/14 08:30:23;;;;;;;0.90;0.20;;;;;;;26.54;36.02;100876.75;4950560;29;20527;-73
2022/06/14 08:33:23;;;;;;;1.02;0.20;;;;;;;26.51;36.04;100872.72;4950490;29;20039;-73
2022/06/14 08:35:55;;;;;;;1.80;0.35;;;;;;;26.52;36.04;100869.00;4943374;29;20043;-73
2022/06/14 08:38:47;;;;;;;0.63;0.20;;;;;;;26.52;36.06;100878.88;4972188;28;20054;-73
2022/06/14 08:41:24;;;;;;;2.58;0.22;;;;;;;26.52;35.93;100870.84;4991776;28;20069;-73
2022/06/14 08:43:55;;;;;;;2.08;0.22;;;;;;;26.53;35.98;100865.25;4991673;28;20069;-73
2022/06/14 08:46:30;;;;;;;0.95;0.28;;;;;;;26.52;35.91;100860.16;4991547;28;20037;-73
2022/06/14 08:49:01;;;;;;;0.73;0.10;;;;;;;26.51;36.03;100870.03;4991907;28;20054;-73
2022/06/14 08:51:52;;;;;;;0.95;0.20;;;;;;;26.51;36.03;100872.72;4991425;28;20026;-73
2022/06/14 08:54:56;;;;;;;1.67;0.20;;;;;;;26.49;36.22;100866.78;4991593;28;20069;-73
2022/06/14 08:57:21;;;;;;;0.50;0.20;;;;;;;26.50;36.19;100860.41;4990088;28;20117;-73
2022/06/14 08:59:55;;;;;;;0.95;0.20;;;;;;;26.50;36.20;100860.41;4991557;28;20109;-73
2022/06/14 09:02:58;;;;;;;1.60;0.20;;;;;;;26.50;36.31;100865.75;4991278;28;20027;-73
2022/06/14 09:05:39;;;;;;;0.75;0.20;;;;;;;26.50;36.14;100870.28;4991227;28;20027;-73
2022/06/14 09:08:42;;;;;;;0.50;0.20;;;;;;;26.49;36.28;100861.44;4991130;28;20490;-73
2022/06/14 09:11:23;;;;;;;0.57;0.20;;;;;;;26.51;36.27;100858.53;4990955;28;20036;-73
2022/06/14 09:14:27;;;;;;;1.67;0.20;;;;;;;26.49;36.19;100869.47;4991237;28;20030;-73
2022/06/14 09:17:23;;;;;;;2.08;0.20;;;;;;;26.50;36.10;100872.94;4990938;28;20419;-73
2022/06/14 09:20:05;;;;;;;0.98;0.20;;;;;;;26.48;36.15;100865.16;4991275;28;20038;-73
2022/06/14 09:22:53;;;;;;;1.10;0.30;;;;;;;26.48;35.97;100859.00;4990820;28;20644;-73
2022/06/14 09:25:43;;;;;;;1.05;0.20;;;;;;;26.48;35.97;100859.81;4991033;28;20030;-73
2022/06/14 09:28:33;;;;;;;0.65;0.20;;;;;;;26.48;36.04;100859.81;4990706;28;20042;-73
2022/06/14 09:31:29;;;;;;;0.70;0.20;;;;;;;26.49;36.10;100857.97;4991133;28;20062;-73
2022/06/14 09:34:13;;;;;;;0.68;0.20;;;;;;;26.49;36.34;100855.28;4990551;28;20038;-73
2022/06/14 09:36:53;;;;;;;1.10;0.30;;;;;;;26.50;36.31;100851.56;4990750;28;20031;-73
2022/06/14 09:39:27;;;;;;;1.30;0.25;;;;;;;26.52;36.23;100852.16;4990933;28;20088;-73
2022/06/14 09:42:16;;;;;;;1.02;0.30;;;;;;;26.51;36.28;100848.66;4990836;28;20128;-73
2022/06/14 09:44:42;;;;;;;0.80;0.20;;;;;;;26.51;36.30;100843.31;4990162;28;20398;-73
2022/06/14 09:47:25;;;;;;;0.60;0.20;;;;;;;26.51;36.30;100843.31;4990531;28;20022;-73
2022/06/14 09:49:53;;;;;;;1.38;0.20;;;;;;;26.52;36.60;100852.97;4990888;28;20128;-73
2022/06/14 09:52:27;;;;;;;0.93;0.20;;;;;;;26.52;36.64;100852.16;4990551;28;20026;-73
2022/06/14 09:55:14;;;;;;;0.85;0.20;;;;;;;26.53;36.54;100851.91;4990310;28;20034;-73
2022/06/14 09:58:01;;;;;;;0.88;0.30;;;;;;;26.53;36.52;100846.56;4990431;28;20548;-73
2022/06/14 10:00:53;;;;;;;1.55;0.20;;;;;;;26.53;36.68;100846.56;4990339;28;20030;-73
2022/06/14 10:03:37;;;;;;;2.28;0.13;;;;;;;26.53;36.86;100849.22;4990515;28;20038;-73
2022/06/14 10:06:21;;;;;;;0.90;0.20;;;;;;;26.54;36.88;100850.84;4990321;28;20026;-73
2022/06/14 10:09:24;;;;;;;0.77;0.20;;;;;;;26.53;36.98;100851.91;4990296;28;20315;-73
2022/06/14 10:11:52;;;;;;;0.45;0.10;;;;;;;26.55;36.91;100846.31;4990078;28;20049;-73
2022/06/14 10:14:33;;;;;;;2.08;0.20;;;;;;;26.55;36.98;100849.81;4989981;28;20037;-73
2022/06/14 10:17:23;;;;;;;1.20;0.20;;;;;;;26.54;37.00;100848.19;4989648;28;20041;-73
2022/06/14 10:20:00;;;;;;;0.40;0.10;;;;;;;26.54;36.84;100850.84;4990249;28;20030;-73
2022/06/14 10:22:54;;;;;;;1.05;0.20;;;;;;;26.51;37.04;100840.66;4990098;28;20325;-73
2022/06/14 10:28:11;;;;;;;0.55;0.20;;;;;;;26.51;37.11;100856.69;4989836;28;20301;-73
2022/06/14 10:28:49;;;;;;;1.38;0.30;;;;;;;26.51;37.20;100842.50;4989525;28;20049;-73
2022/06/14 10:31:44;;;;;;;1.67;0.20;;;;;;;26.52;37.04;100852.16;4966112;28;20086;-73
2022/06/14 10:34:40;;;;;;;1.40;0.30;;;;;;;26.50;36.93;100846.22;4964695;28;20049;-73
2022/06/14 10:37:42;;;;;;;1.13;0.22;;;;;;;26.53;35.70;100833.19;4963883;28;20050;-74
2022/06/14 10:40:20;;;;;;;2.42;0.20;;;;;;;26.56;35.41;100830.06;4965895;28;20039;-75
2022/06/14 10:43:08;;;;;;;2.35;0.20;;;;;;;26.59;35.05;100826.91;4966684;28;20062;-74
2022/06/14 10:45:46;;;;;;;1.98;0.20;;;;;;;26.62;34.82;100821.06;4939104;28;20111;-74
2022/06/14 10:48:28;;;;;;;2.40;0.30;;;;;;;26.65;34.90;100823.25;4967042;28;20078;-74
2022/06/14 10:51:28;;;;;;;1.10;0.30;;;;;;;26.65;34.34;100820.59;4967036;28;20155;-73
2022/06/14 10:54:20;;;;;;;1.25;0.30;;;;;;;26.68;35.57;100820.09;4967018;28;20037;-74
2022/06/14 10:57:07;;;;;;;3.90;0.20;;;;;;;26.70;35.63;100825.22;4966929;28;20620;-73
2022/06/14 10:59:38;;;;;;;1.92;0.20;;;;;;;26.72;36.15;100831.94;4966825;28;20045;-73
2022/06/14 11:02:26;;;;;;;1.98;0.30;;;;;;;26.75;35.45;100826.09;4966680;28;20046;-73
2022/06/14 11:05:09;;;;;;;0.68;0.20;;;;;;;26.83;36.11;100816.88;4966843;28;20502;-73
2022/06/14 11:07:59;;;;;;;0.60;0.20;;;;;;;26.92;35.84;100809.28;4970898;28;20048;-72
2022/06/14 11:10:44;;;;;;;2.10;0.20;;;;;;;27.01;35.68;100813.16;4988833;28;20049;-73
2022/06/14 11:13:23;;;;;;;0.98;0.52;;;;;;;27.13;35.43;100805.84;5006424;28;20034;-73
2022/06/14 11:16:39;;;;;;;2.13;0.40;;;;;;;27.42;38.14;100803.84;5007802;28;20045;-72
2022/06/14 11:19:36;;;;;;;19.85;1.17;;;;;;;27.62;41.94;100814.03;4947245;29;20053;-72
2022/06/14 11:22:35;;;;;;;9.82;0.50;;;;;;;27.72;45.12;100809.63;4944420;29;20458;-72
2022/06/14 11:25:06;;;;;;;2.83;0.30;;;;;;;27.80;46.87;100800.34;4946116;29;20043;-72
2022/06/14 11:27:56;;;;;;;6.25;0.40;;;;;;;27.90;45.83;100811.16;4947123;29;20042;-73
2022/06/14 11:30:40;;;;;;;3.85;0.73;;;;;;;27.99;51.83;100812.31;4947327;29;20042;-72
2022/06/14 11:33:29;;;;;;;4.22;0.30;;;;;;;28.12;51.82;100810.31;4947303;29;20123;-73
2022/06/14 11:35:57;;;;;;;6.35;0.43;;;;;;;28.07;49.23;100806.53;4942401;28;20511;-73
2022/06/14 11:38:45;;;;;;;3.75;0.30;;;;;;;27.93;46.85;100804.47;4947368;28;20035;-72
2022/06/14 11:41:14;;;;;;;3.00;0.20;;;;;;;27.78;46.10;100813.16;4927708;29;20047;-73
2022/06/14 11:44:04;;;;;;;1.45;0.40;;;;;;;27.69;45.35;100802.09;4947018;29;20137;-72
2022/06/14 11:46:49;;;;;;;2.20;0.30;;;;;;;27.60;44.95;100798.22;4947514;29;20497;-72
2022/06/14 11:49:48;;;;;;;2.67;0.30;;;;;;;27.56;44.80;100798.94;4947361;29;20051;-73
2022/06/14 11:52:21;;;;;;;0.82;0.20;;;;;;;27.53;44.41;100799.44;4947455;29;20082;-73
2022/06/14 11:55:08;;;;;;;2.55;0.13;;;;;;;27.50;44.12;100795.38;4954274;28;20039;-73
2022/06/14 11:57:48;;;;;;;1.02;0.20;;;;;;;27.48;43.62;100785.97;5008402;28;20030;-73
2022/06/14 12:00:23;;;;;;;1.08;0.20;;;;;;;27.46;43.48;100788.91;5008023;28;20091;-72
2022/06/14 12:03:08;;;;;;;4.20;0.25;;;;;;;27.46;43.47;100794.25;5008340;28;20036;-73
2022/06/14 12:05:46;;;;;;;;;;;;;;;27.33;42.21;100784.75;5008357;28;20560;-72
2022/06/14 12:08:45;;;;;;;1.40;0.20;;;;;;;27.28;40.77;100787.34;5007638;28;20357;-73
2022/06/14 12:11:21;;;;;;;1.30;0.20;;;;;;;27.26;38.84;100788.66;5007964;28;20038;-72
2022/06/14 12:14:05;;;;;;;4.60;0.30;;;;;;;27.23;37.99;100781.94;5007807;28;20441;-73
2022/06/14 12:16:38;;;;;;;1.45;0.17;;;;;;;27.20;36.43;100778.94;5007773;28;20176;-73
2022/06/14 12:19:11;;;;;;;1.10;0.20;;;;;;;27.17;36.24;100777.56;5008023;28;20046;-72
2022/06/14 12:22:28;;;;;;;2.10;0.30;;;;;;;27.15;35.73;100777.00;5007858;28;20045;-73
2022/06/14 12:27:45;;;;;;;1.48;0.30;;;;;;;27.10;35.82;100766.22;4966170;28;20138;-73
2022/06/14 12:30:15;;;;;;;1.50;0.20;;;;;;;27.11;35.42;100765.19;4967988;28;20027;-73